Time;durP1;ratioP1;P1;durP2;ratioP2;P2;SDS_P1;SDS_P2;PMS_P1;PMS_P2;Temp;Humidity;BMP_temperature;BMP_pressure;BME280_temperature;BME280_humidity;BME280_pressure;Samples;Min_cycle;Max_cycle;Signal;HPM_P1;HPM_P2
2021/10/23 00:02:26;;;;;;;5.70;2.58;;;12.60;55.30;;;;;;6222765;28;20466;-76
2021/10/23 00:05:27;;;;;;;7.93;2.45;;;12.50;55.50;;;;;;6223520;28;20529;-76
2021/10/23 00:08:27;;;;;;;7.70;2.55;;;12.50;55.60;;;;;;6224911;28;20116;-76
2021/10/23 00:11:28;;;;;;;7.15;2.67;;;12.50;55.70;;;;;;6224672;28;20434;-75
2021/10/23 00:14:29;;;;;;;5.53;2.67;;;12.40;55.80;;;;;;6218103;28;20030;-75
2021/10/23 00:17:31;;;;;;;8.45;2.65;;;12.40;55.80;;;;;;6223428;28;20030;-76
2021/10/23 00:20:33;;;;;;;4.38;2.40;;;12.40;55.90;;;;;;6224434;28;20489;-76
2021/10/23 00:23:34;;;;;;;5.28;2.70;;;12.30;56.00;;;;;;6223301;28;20046;-75
2021/10/23 00:26:34;;;;;;;4.72;2.85;;;12.30;56.10;;;;;;6223083;28;20069;-76
2021/10/23 00:29:35;;;;;;;10.52;2.42;;;12.20;56.10;;;;;;6222810;28;20038;-77
2021/10/23 00:32:38;;;;;;;5.75;2.38;;;12.20;56.20;;;;;;6222763;28;20038;-75
2021/10/23 00:35:38;;;;;;;6.18;2.72;;;12.10;56.30;;;;;;6224404;28;20030;-77
2021/10/23 00:38:39;;;;;;;2.88;2.00;;;12.10;56.40;;;;;;6223551;28;20479;-75
2021/10/23 00:41:41;;;;;;;6.50;2.15;;;12.10;56.70;;;;;;6223010;28;20482;-76
2021/10/23 00:44:43;;;;;;;3.90;2.50;;;12.10;56.70;;;;;;6223063;28;20030;-75
2021/10/23 00:47:44;;;;;;;10.88;3.05;;;12.00;56.70;;;;;;6222333;28;20122;-76
2021/10/23 00:50:46;;;;;;;6.20;2.40;;;12.00;56.70;;;;;;6223856;28;20061;-76
2021/10/23 00:53:48;;;;;;;7.10;2.53;;;12.00;56.80;;;;;;6221815;28;20038;-77
2021/10/23 00:56:49;;;;;;;8.00;2.55;;;12.00;56.90;;;;;;6206362;28;20049;-78
2021/10/23 00:59:52;;;;;;;6.85;2.63;;;11.90;57.50;;;;;;6192446;28;20052;-76
2021/10/23 01:02:53;;;;;;;10.48;2.53;;;11.90;56.90;;;;;;6221343;28;20038;-75
2021/10/23 01:05:55;;;;;;;7.32;2.97;;;11.90;57.50;;;;;;6220491;28;20137;-75
2021/10/23 01:08:58;;;;;;;8.20;2.78;;;11.90;57.10;;;;;;6222921;28;20108;-76
2021/10/23 01:12:00;;;;;;;9.90;2.30;;;11.90;57.10;;;;;;6222190;28;20328;-75
2021/10/23 01:15:19;;;;;;;5.85;2.40;;;11.90;57.70;;;;;;6205264;28;20037;-75
2021/10/23 01:18:20;;;;;;;3.95;2.22;;;11.90;57.20;;;;;;6209226;28;20088;-76
2021/10/23 01:21:23;;;;;;;5.28;2.25;;;11.80;57.20;;;;;;6221551;28;20041;-76
2021/10/23 01:24:24;;;;;;;9.23;2.75;;;11.80;57.20;;;;;;6220229;28;20050;-76
2021/10/23 01:27:25;;;;;;;6.85;2.30;;;11.80;57.30;;;;;;6237033;28;20052;-77
2021/10/23 01:30:26;;;;;;;5.18;2.42;;;11.80;57.30;;;;;;6220454;28;20030;-77
2021/10/23 01:33:27;;;;;;;6.00;2.20;;;11.80;57.30;;;;;;6220012;28;20034;-77
2021/10/23 01:36:28;;;;;;;10.73;2.55;;;11.80;57.30;;;;;;6221378;28;20033;-76
2021/10/23 01:39:33;;;;;;;4.50;2.33;;;11.70;57.40;;;;;;6220892;28;20123;-77
2021/10/23 01:42:35;;;;;;;4.30;2.17;;;11.70;57.50;;;;;;6203258;28;20041;-77
2021/10/23 01:45:36;;;;;;;5.75;1.77;;;11.70;57.50;;;;;;6220168;28;20378;-76
2021/10/23 01:48:37;;;;;;;3.35;2.05;;;11.70;57.50;;;;;;6203066;28;20038;-76
2021/10/23 01:51:38;;;;;;;5.43;2.20;;;11.70;57.50;;;;;;6220107;28;20109;-76
2021/10/23 01:54:39;;;;;;;3.45;1.88;;;11.70;57.50;;;;;;6221197;28;20041;-76
2021/10/23 01:57:40;;;;;;;5.97;2.10;;;11.70;57.50;;;;;;6214350;28;20051;-76
2021/10/23 02:00:41;;;;;;;3.80;2.22;;;11.70;57.50;;;;;;6218565;28;20422;-78
2021/10/23 02:03:42;;;;;;;5.00;2.05;;;11.70;57.50;;;;;;6218080;28;20068;-77
2021/10/23 02:06:43;;;;;;;5.65;2.15;;;11.60;57.50;;;;;;6200810;28;20053;-77
2021/10/23 02:09:44;;;;;;;6.45;2.60;;;11.60;57.50;;;;;;6219754;28;20089;-76
2021/10/23 02:12:45;;;;;;;4.88;2.08;;;11.60;57.60;;;;;;6219255;28;20037;-76
2021/10/23 02:15:46;;;;;;;3.88;2.20;;;11.50;58.10;;;;;;6221103;28;20045;-75
2021/10/23 02:18:47;;;;;;;7.32;2.05;;;11.60;57.50;;;;;;6218189;28;20049;-75
2021/10/23 02:21:48;;;;;;;6.22;2.67;;;11.60;57.60;;;;;;6220752;28;20049;-75
2021/10/23 02:24:49;;;;;;;10.15;2.15;;;11.50;57.60;;;;;;6220651;28;20088;-76
2021/10/23 02:27:50;;;;;;;5.25;2.53;;;11.50;57.70;;;;;;6221648;28;20099;-76
2021/10/23 02:30:51;;;;;;;7.57;2.33;;;11.50;57.70;;;;;;6221094;28;20038;-76
2021/10/23 02:33:52;;;;;;;4.15;2.22;;;11.50;57.70;;;;;;6221977;28;20042;-75
2021/10/23 02:36:53;;;;;;;4.50;2.40;;;11.50;57.70;;;;;;6220467;28;20049;-76
2021/10/23 02:39:54;;;;;;;7.00;2.25;;;11.40;57.70;;;;;;6203579;28;20045;-77
2021/10/23 02:42:55;;;;;;;6.03;2.05;;;11.40;57.80;;;;;;6220606;28;20076;-77
2021/10/23 02:45:56;;;;;;;6.57;2.28;;;11.30;57.90;;;;;;6236924;28;20117;-76
2021/10/23 02:48:57;;;;;;;6.47;2.35;;;11.30;57.90;;;;;;6220196;28;20160;-77
2021/10/23 02:51:58;;;;;;;7.97;2.40;;;11.30;58.00;;;;;;6204142;28;20125;-76
2021/10/23 02:54:59;;;;;;;3.08;1.73;;;11.30;58.00;;;;;;6224235;28;20129;-76
2021/10/23 02:58:00;;;;;;;6.80;2.75;;;11.30;58.00;;;;;;6223791;28;20470;-76
2021/10/23 03:01:02;;;;;;;3.38;2.15;;;11.20;58.00;;;;;;6231165;28;20426;-76
2021/10/23 03:04:03;;;;;;;6.78;2.72;;;11.20;58.10;;;;;;6222143;28;20052;-76
2021/10/23 03:07:04;;;;;;;10.15;2.25;;;11.20;58.20;;;;;;6225131;28;20045;-77
2021/10/23 03:10:06;;;;;;;5.45;2.22;;;11.20;58.30;;;;;;6225054;28;20037;-76
2021/10/23 03:13:06;;;;;;;4.85;2.30;;;11.20;58.30;;;;;;6225011;28;20053;-76
2021/10/23 03:16:08;;;;;;;3.38;1.83;;;11.10;58.30;;;;;;6224650;28;20100;-77
2021/10/23 03:19:09;;;;;;;6.20;2.40;;;11.10;58.50;;;;;;6208021;28;20053;-76
2021/10/23 03:22:10;;;;;;;12.43;2.45;;;11.10;58.50;;;;;;6241327;28;20042;-77
2021/10/23 03:25:13;;;;;;;3.30;2.03;;;11.10;58.60;;;;;;6225496;28;20030;-76
2021/10/23 03:28:15;;;;;;;4.38;2.13;;;11.10;58.60;;;;;;6222048;28;20038;-76
2021/10/23 03:31:16;;;;;;;3.28;1.90;;;11.10;58.70;;;;;;6224283;28;20038;-75
2021/10/23 03:34:17;;;;;;;2.92;1.63;;;11.10;58.70;;;;;;6223194;28;20037;-77
2021/10/23 03:37:18;;;;;;;4.80;2.28;;;11.00;58.70;;;;;;6207844;28;20029;-77
2021/10/23 03:40:19;;;;;;;3.53;2.25;;;11.10;58.70;;;;;;6224218;28;20124;-75
2021/10/23 03:43:20;;;;;;;6.38;2.05;;;11.10;58.70;;;;;;6224126;28;20052;-75
2021/10/23 03:46:20;;;;;;;4.40;2.30;;;11.10;58.70;;;;;;6224811;28;20038;-75
2021/10/23 03:49:21;;;;;;;4.82;2.55;;;11.10;59.30;;;;;;6225151;28;20037;-77
2021/10/23 03:52:22;;;;;;;4.03;2.20;;;11.10;58.60;;;;;;6223725;28;20057;-77
2021/10/23 03:55:23;;;;;;;1.67;1.40;;;11.10;58.60;;;;;;6224985;28;20077;-77
2021/10/23 03:58:24;;;;;;;3.72;1.92;;;11.10;58.70;;;;;;6224083;28;20171;-75
2021/10/23 04:01:25;;;;;;;3.05;1.63;;;11.10;58.80;;;;;;6223774;28;20073;-77
2021/10/23 04:04:26;;;;;;;5.82;2.22;;;11.00;58.80;;;;;;6222918;28;20594;-75
2021/10/23 04:07:28;;;;;;;4.15;1.63;;;11.00;59.00;;;;;;6223772;28;20041;-76
2021/10/23 04:10:29;;;;;;;3.85;1.83;;;10.90;59.00;;;;;;6224945;28;20065;-77
2021/10/23 04:13:30;;;;;;;5.70;2.40;;;10.90;59.10;;;;;;6223718;28;20366;-76
2021/10/23 04:16:30;;;;;;;3.53;1.98;;;10.90;59.20;;;;;;6224563;28;20048;-76
2021/10/23 04:19:31;;;;;;;4.15;2.10;;;10.80;59.20;;;;;;6224092;28;20038;-76
2021/10/23 04:22:32;;;;;;;6.53;2.38;;;10.80;59.30;;;;;;6222304;28;20360;-76
2021/10/23 04:25:33;;;;;;;3.65;1.77;;;10.80;59.40;;;;;;6222751;28;20091;-75
2021/10/23 04:28:34;;;;;;;2.47;1.67;;;10.80;59.40;;;;;;6223343;28;20042;-76
2021/10/23 04:31:35;;;;;;;9.73;2.03;;;10.80;59.50;;;;;;6210001;28;20038;-77
2021/10/23 04:34:36;;;;;;;6.85;2.13;;;10.80;59.50;;;;;;6222997;28;20443;-76
2021/10/23 04:37:40;;;;;;;3.50;1.98;;;10.80;59.60;;;;;;6223024;28;20037;-76
2021/10/23 04:40:41;;;;;;;6.00;2.60;;;10.80;59.60;;;;;;6223631;28;20382;-76
2021/10/23 04:43:42;;;;;;;8.23;2.95;;;10.80;59.60;;;;;;6222736;28;20042;-77
2021/10/23 04:46:43;;;;;;;3.45;2.03;;;10.80;59.60;;;;;;6222740;28;20038;-76
2021/10/23 04:49:44;;;;;;;5.90;2.08;;;10.80;59.50;;;;;;6223683;28;20120;-76
2021/10/23 04:52:45;;;;;;;4.68;2.53;;;10.80;59.50;;;;;;6222550;28;20034;-76
2021/10/23 04:55:46;;;;;;;5.90;2.40;;;10.80;59.50;;;;;;6222714;28;20045;-75
2021/10/23 04:58:47;;;;;;;7.03;2.25;;;10.80;59.60;;;;;;6222799;28;20037;-76
2021/10/23 05:01:48;;;;;;;3.80;2.05;;;10.80;59.60;;;;;;6221255;28;20129;-76
2021/10/23 05:04:49;;;;;;;7.32;2.15;;;10.80;59.60;;;;;;6237868;28;20038;-77
2021/10/23 05:07:50;;;;;;;4.60;2.15;;;10.80;59.70;;;;;;6220518;28;20033;-76
2021/10/23 05:10:51;;;;;;;7.63;2.63;;;10.80;59.70;;;;;;6226820;28;20061;-77
2021/10/23 05:13:51;;;;;;;4.65;2.55;;;10.70;59.70;;;;;;6223767;28;20467;-76
2021/10/23 05:16:52;;;;;;;8.30;2.17;;;10.70;59.70;;;;;;6238174;28;20113;-76
2021/10/23 05:19:53;;;;;;;8.02;2.25;;;10.60;59.70;;;;;;6223404;28;20041;-76
2021/10/23 05:22:54;;;;;;;3.63;2.03;;;10.60;59.90;;;;;;6223379;28;20041;-78
2021/10/23 05:25:55;;;;;;;3.90;2.28;;;10.70;59.90;;;;;;6222557;28;20095;-78
2021/10/23 05:28:56;;;;;;;4.63;2.72;;;10.60;59.90;;;;;;6222078;28;20034;-77
2021/10/23 05:31:57;;;;;;;4.50;2.15;;;10.60;59.90;;;;;;6221702;28;20034;-78
2021/10/23 05:34:57;;;;;;;5.22;2.47;;;10.60;59.90;;;;;;6222225;28;20040;-77
2021/10/23 05:37:58;;;;;;;4.35;1.90;;;10.60;59.90;;;;;;6237624;28;20456;-78
2021/10/23 05:41:01;;;;;;;3.67;1.90;;;10.70;59.90;;;;;;6222793;28;20092;-76
2021/10/23 05:44:02;;;;;;;6.75;2.50;;;10.60;59.90;;;;;;6222764;28;20045;-76
2021/10/23 05:47:03;;;;;;;3.70;2.33;;;10.60;59.90;;;;;;6215312;28;20124;-76
2021/10/23 05:50:04;;;;;;;2.95;1.80;;;10.60;59.90;;;;;;6222287;28;20474;-78
2021/10/23 05:53:06;;;;;;;2.55;1.77;;;10.60;60.00;;;;;;6222077;28;20048;-76
2021/10/23 05:56:07;;;;;;;5.30;2.08;;;10.60;60.00;;;;;;6221384;28;20038;-76
2021/10/23 05:59:12;;;;;;;4.88;2.47;;;10.60;60.10;;;;;;6204653;28;20048;-76
2021/10/23 06:02:32;;;;;;;5.28;1.98;;;10.60;60.00;;;;;;6212132;28;20069;-76
2021/10/23 06:05:33;;;;;;;3.67;2.15;;;10.60;60.00;;;;;;6219687;28;20027;-76
2021/10/23 06:08:38;;;;;;;2.97;2.10;;;10.50;59.90;;;;;;6220100;28;20045;-76
2021/10/23 06:11:39;;;;;;;2.70;1.70;;;10.50;59.90;;;;;;6220831;28;20482;-77
2021/10/23 06:14:40;;;;;;;4.57;2.17;;;10.60;60.00;;;;;;6219957;28;20030;-75
2021/10/23 06:17:41;;;;;;;6.38;2.28;;;10.50;60.00;;;;;;6219285;28;20042;-76
2021/10/23 06:20:42;;;;;;;3.65;2.15;;;10.50;60.10;;;;;;6218879;28;20125;-76
2021/10/23 06:23:43;;;;;;;5.95;2.30;;;10.50;60.10;;;;;;6220390;28;20057;-77
2021/10/23 06:26:44;;;;;;;3.75;1.90;;;10.50;60.20;;;;;;6194035;28;20061;-77
2021/10/23 06:29:45;;;;;;;9.18;2.50;;;10.50;60.10;;;;;;6217940;28;20506;-75
2021/10/23 06:32:49;;;;;;;8.10;2.15;;;10.50;60.20;;;;;;6220752;28;20034;-77
2021/10/23 06:35:50;;;;;;;3.88;2.22;;;10.50;60.10;;;;;;6235924;28;20034;-77
2021/10/23 06:38:51;;;;;;;3.63;2.08;;;10.50;60.00;;;;;;6234698;28;20038;-77
2021/10/23 06:41:51;;;;;;;3.80;2.13;;;10.60;59.90;;;;;;6218992;28;20042;-76
2021/10/23 06:44:52;;;;;;;3.90;2.47;;;10.70;59.90;;;;;;6218067;28;20452;-77
2021/10/23 06:47:54;;;;;;;4.93;2.60;;;10.70;59.70;;;;;;6199628;28;20121;-76
2021/10/23 06:50:55;;;;;;;5.28;2.28;;;10.80;59.70;;;;;;6220340;28;20133;-77
2021/10/23 06:53:57;;;;;;;3.95;2.33;;;10.90;59.70;;;;;;6218745;28;20037;-76
2021/10/23 06:56:58;;;;;;;10.00;2.63;;;11.00;59.60;;;;;;6234696;28;20037;-76
2021/10/23 06:59:58;;;;;;;5.00;2.63;;;11.10;59.60;;;;;;6218936;28;20099;-76
2021/10/23 07:02:59;;;;;;;6.90;2.90;;;11.10;59.50;;;;;;6219912;28;20046;-76
2021/10/23 07:06:00;;;;;;;4.68;2.70;;;11.30;59.40;;;;;;6221135;28;20034;-76
2021/10/23 07:09:01;;;;;;;12.13;2.63;;;11.40;59.30;;;;;;6217755;28;20459;-76
2021/10/23 07:12:02;;;;;;;6.03;3.20;;;11.50;59.20;;;;;;6220770;28;20167;-75
2021/10/23 07:15:05;;;;;;;7.13;3.22;;;11.60;59.10;;;;;;6217683;28;20095;-76
2021/10/23 07:18:06;;;;;;;6.18;3.00;;;11.70;58.90;;;;;;6218743;28;20607;-77
2021/10/23 07:21:07;;;;;;;6.82;2.88;;;11.90;58.70;;;;;;6217026;28;20046;-77
2021/10/23 07:24:08;;;;;;;10.82;2.95;;;12.00;58.50;;;;;;6219493;28;20034;-76
2021/10/23 07:27:09;;;;;;;8.10;3.22;;;12.20;58.20;;;;;;6218821;28;20368;-76
2021/10/23 07:30:10;;;;;;;5.47;3.33;;;12.30;58.60;;;;;;6220677;28;20482;-77
2021/10/23 07:33:11;;;;;;;4.80;2.63;;;12.40;57.80;;;;;;6218788;28;20060;-76
2021/10/23 07:36:17;;;;;;;5.82;3.15;;;12.40;57.70;;;;;;6218065;28;20074;-76
2021/10/23 07:39:18;;;;;;;4.32;3.08;;;12.50;57.40;;;;;;6214389;28;20052;-74
2021/10/23 07:42:20;;;;;;;9.95;3.40;;;12.50;57.20;;;;;;6224265;28;20042;-76
2021/10/23 07:45:21;;;;;;;5.55;3.40;;;12.60;57.20;;;;;;6224412;28;20156;-76
2021/10/23 07:48:22;;;;;;;9.30;2.95;;;12.70;57.10;;;;;;6239283;28;20197;-76
2021/10/23 07:51:23;;;;;;;14.93;3.13;;;12.80;57.00;;;;;;6224425;28;20041;-78
2021/10/23 07:54:24;;;;;;;5.05;2.65;;;12.80;56.50;;;;;;6240363;28;20498;-76
2021/10/23 07:57:25;;;;;;;8.32;3.08;;;12.90;56.30;;;;;;6221999;28;20030;-76
2021/10/23 08:00:26;;;;;;;6.72;2.80;;;12.90;56.00;;;;;;6222823;28;20367;-77
2021/10/23 08:03:26;;;;;;;8.13;3.20;;;13.00;56.00;;;;;;6222210;28;20053;-75
2021/10/23 08:06:31;;;;;;;5.97;2.80;;;13.00;55.70;;;;;;6223397;28;20052;-77
2021/10/23 08:09:33;;;;;;;6.50;2.47;;;13.10;55.60;;;;;;6202872;28;20474;-78
2021/10/23 08:12:34;;;;;;;7.80;2.58;;;13.10;55.50;;;;;;6221401;28;20176;-76
2021/10/23 08:15:37;;;;;;;8.63;3.15;;;13.20;55.30;;;;;;6224240;28;20182;-77
2021/10/23 08:18:37;;;;;;;8.75;4.53;;;13.30;55.00;;;;;;6200470;28;20037;-77
2021/10/23 08:21:40;;;;;;;5.40;2.72;;;13.40;54.60;;;;;;6222284;28;20128;-76
2021/10/23 08:24:41;;;;;;;5.72;2.65;;;13.60;54.50;;;;;;6238791;28;20034;-77
2021/10/23 08:27:43;;;;;;;7.78;3.42;;;13.60;54.20;;;;;;6222600;28;20038;-76
2021/10/23 08:30:44;;;;;;;8.35;3.05;;;13.70;53.90;;;;;;6221313;28;20482;-77
2021/10/23 08:33:45;;;;;;;6.20;2.83;;;13.90;53.70;;;;;;6222116;28;20034;-76
2021/10/23 08:36:46;;;;;;;6.90;2.45;;;14.10;53.40;;;;;;6222821;28;20506;-76
2021/10/23 08:39:47;;;;;;;33.00;14.50;;;14.20;52.90;;;;;;6220824;28;20136;-77
2021/10/23 08:42:49;;;;;;;7.10;2.97;;;14.30;51.70;;;;;;6221532;28;20129;-76
2021/10/23 08:45:55;;;;;;;6.93;2.45;;;14.40;51.00;;;;;;6205832;28;20041;-77
2021/10/23 08:48:56;;;;;;;7.95;2.88;;;14.60;50.90;;;;;;6221787;28;20046;-77
2021/10/23 08:51:58;;;;;;;7.25;2.20;;;14.80;50.80;;;;;;6238181;28;20034;-77
2021/10/23 08:54:59;;;;;;;8.52;2.15;;;14.90;50.50;;;;;;6221734;28;20042;-76
2021/10/23 08:58:00;;;;;;;11.38;2.00;;;15.10;50.00;;;;;;6200757;28;20067;-75
2021/10/23 09:01:02;;;;;;;25.38;8.20;;;15.10;49.50;;;;;;6223709;28;20030;-76
2021/10/23 09:04:03;;;;;;;8.52;2.95;;;15.20;49.50;;;;;;6222638;28;20068;-76
2021/10/23 09:07:15;;;;;;;9.73;3.88;;;15.30;48.70;;;;;;6234874;28;20422;-76
2021/10/23 09:10:24;;;;;;;11.98;3.88;;;15.30;48.40;;;;;;6259658;28;20034;-78
2021/10/23 09:13:33;;;;;;;5.68;2.42;;;15.40;48.20;;;;;;6218475;28;20053;-77
2021/10/23 09:16:35;;;;;;;4.93;2.60;;;15.30;47.80;;;;;;6224117;28;20037;-77
2021/10/23 09:19:44;;;;;;;6.43;2.25;;;15.30;47.60;;;;;;6221854;28;20041;-77
2021/10/23 09:22:47;;;;;;;5.13;2.15;;;15.30;47.70;;;;;;6222944;28;20096;-76
2021/10/23 09:25:51;;;;;;;3.63;1.70;;;15.30;47.70;;;;;;6219886;28;20025;-77
2021/10/23 09:29:12;;;;;;;8.75;2.20;;;15.30;47.60;;;;;;6221811;28;20394;-76
2021/10/23 09:32:38;;;;;;;9.50;4.18;;;15.30;47.70;;;;;;6216605;28;20057;-76
2021/10/23 09:35:44;;;;;;;5.88;2.85;;;15.30;47.60;;;;;;6225433;28;20044;-76
2021/10/23 09:38:49;;;;;;;14.00;4.32;;;15.30;47.50;;;;;;6235344;28;20067;-76
2021/10/23 09:42:17;;;;;;;4.20;1.67;;;15.30;47.30;;;;;;6240435;28;20484;-77
2021/10/23 09:45:17;;;;;;;5.28;1.80;;;15.20;47.50;;;;;;6219408;28;20049;-76
2021/10/23 09:48:43;;;;;;;4.03;1.63;;;15.20;47.30;;;;;;6234521;28;20375;-79
2021/10/23 09:51:44;;;;;;;7.03;2.72;;;15.30;47.20;;;;;;6222487;28;20033;-77
2021/10/23 09:55:08;;;;;;;4.75;2.15;;;15.30;47.00;;;;;;6218071;28;20042;-77
2021/10/23 09:58:24;;;;;;;5.55;2.20;;;15.30;46.80;;;;;;6219666;28;20042;-78
2021/10/23 10:01:29;;;;;;;8.82;1.65;;;15.50;46.40;;;;;;6221614;28;20049;-75
2021/10/23 10:04:31;;;;;;;3.42;1.27;;;15.80;46.00;;;;;;6220109;28;20120;-76
2021/10/23 10:07:33;;;;;;;7.93;2.50;;;16.10;45.20;;;;;;6204534;28;20049;-77
2021/10/23 10:10:38;;;;;;;6.68;1.40;;;16.40;44.30;;;;;;6220690;28;20128;-77
2021/10/23 10:13:39;;;;;;;7.85;3.15;;;16.70;43.70;;;;;;6218002;28;20574;-76
2021/10/23 10:17:02;;;;;;;10.20;4.25;;;16.90;43.40;;;;;;6234867;28;20042;-77
2021/10/23 10:20:03;;;;;;;6.97;1.60;;;17.10;43.40;;;;;;6219833;28;20038;-75
2021/10/23 10:23:10;;;;;;;7.53;2.83;;;17.30;42.80;;;;;;6219881;28;20426;-77
2021/10/23 10:26:28;;;;;;;21.92;6.78;;;17.50;42.50;;;;;;6229297;28;20045;-77
2021/10/23 10:29:56;;;;;;;8.05;3.25;;;17.70;41.90;;;;;;6219781;28;20103;-75
2021/10/23 10:33:17;;;;;;;6.80;2.58;;;17.80;41.60;;;;;;6214163;28;20030;-76
2021/10/23 10:36:34;;;;;;;4.57;1.92;;;18.00;41.50;;;;;;6222131;28;20038;-76
2021/10/23 10:39:55;;;;;;;25.70;8.15;;;18.10;41.10;;;;;;6218554;28;20044;-76
2021/10/23 10:43:01;;;;;;;7.30;2.65;;;18.30;40.60;;;;;;6235377;28;20026;-75
2021/10/23 10:46:04;;;;;;;21.05;9.27;;;18.50;40.20;;;;;;6216133;28;20421;-76
2021/10/23 10:49:25;;;;;;;7.85;3.47;;;18.70;40.10;;;;;;6233912;28;20042;-77
2021/10/23 10:52:43;;;;;;;3.63;2.25;;;18.90;39.70;;;;;;6216809;28;20437;-77
2021/10/23 10:55:49;;;;;;;7.38;2.97;;;19.10;39.30;;;;;;6217432;28;20038;-77
2021/10/23 10:58:56;;;;;;;6.65;2.67;;;19.20;38.80;;;;;;6218293;28;20060;-77
2021/10/23 11:02:07;;;;;;;4.80;2.25;;;19.30;38.50;;;;;;6213255;28;20038;-78
2021/10/23 11:05:16;;;;;;;33.13;12.35;;;19.30;38.20;;;;;;6220039;28;20038;-77
2021/10/23 11:08:17;;;;;;;7.80;3.03;;;19.50;38.10;;;;;;6220201;28;20141;-77
2021/10/23 11:11:18;;;;;;;34.95;9.88;;;19.70;37.90;;;;;;6227262;28;20069;-77
2021/10/23 11:14:28;;;;;;;10.05;3.15;;;20.00;37.30;;;;;;6216671;28;20084;-76
2021/10/23 11:17:29;;;;;;;3.10;1.98;;;20.30;36.70;;;;;;6221954;28;20050;-77
2021/10/23 11:20:30;;;;;;;12.40;5.10;;;20.70;36.20;;;;;;6224589;28;20064;-76
2021/10/23 11:23:31;;;;;;;11.45;5.32;;;21.10;35.70;;;;;;6222207;28;20037;-77
2021/10/23 11:26:32;;;;;;;14.98;5.10;;;21.40;34.80;;;;;;6222807;28;20030;-76
2021/10/23 11:29:34;;;;;;;6.35;2.22;;;21.70;34.20;;;;;;6220349;28;20037;-76
2021/10/23 11:32:40;;;;;;;5.72;1.98;;;22.00;33.70;;;;;;6222438;28;20456;-76
2021/10/23 11:35:46;;;;;;;5.45;1.83;;;22.20;33.20;;;;;;6223488;28;20348;-81
2021/10/23 11:38:48;;;;;;;4.82;1.80;;;22.50;33.00;;;;;;6221285;28;20038;-77
2021/10/23 11:41:49;;;;;;;4.63;2.17;;;22.70;32.70;;;;;;6223102;28;20057;-77
2021/10/23 11:44:54;;;;;;;3.83;1.88;;;23.10;32.20;;;;;;6223381;28;20046;-77
2021/10/23 11:47:58;;;;;;;2.90;1.90;;;23.60;31.50;;;;;;6230688;28;20118;-76
2021/10/23 11:50:59;;;;;;;3.90;1.70;;;24.10;30.70;;;;;;6206749;28;20480;-77
2021/10/23 11:54:05;;;;;;;3.05;1.50;;;24.50;30.10;;;;;;6222306;28;20041;-77
2021/10/23 11:57:06;;;;;;;4.07;1.80;;;25.00;29.70;;;;;;6202618;28;20045;-77
2021/10/23 12:00:32;;;;;;;4.70;1.95;;;25.30;29.30;;;;;;6223697;28;20493;-78
2021/10/23 12:03:41;;;;;;;4.43;1.77;;;25.50;28.90;;;;;;6224655;28;20048;-76
2021/10/23 12:06:44;;;;;;;5.43;1.88;;;25.70;28.60;;;;;;6225573;28;20180;-77
2021/10/23 12:10:04;;;;;;;3.08;1.83;;;26.00;28.40;;;;;;6206967;28;22369;-77
2021/10/23 12:13:14;;;;;;;3.88;1.75;;;26.30;28.70;;;;;;6222596;28;20372;-76
2021/10/23 12:16:18;;;;;;;4.03;2.03;;;26.40;27.80;;;;;;6207248;28;20121;-76
2021/10/23 12:19:32;;;;;;;2.38;1.60;;;26.70;27.60;;;;;;6222629;28;20099;-77
2021/10/23 12:22:39;;;;;;;3.25;2.08;;;26.80;27.10;;;;;;6223920;28;20060;-77
2021/10/23 12:25:41;;;;;;;4.97;1.57;;;26.50;27.10;;;;;;6221880;28;20371;-77
2021/10/23 12:28:58;;;;;;;3.75;1.88;;;25.60;27.70;;;;;;6237929;28;20034;-77
2021/10/23 12:32:01;;;;;;;7.55;2.15;;;24.70;28.50;;;;;;6213348;28;20030;-77
2021/10/23 12:35:11;;;;;;;4.75;1.92;;;24.10;29.30;;;;;;6218574;28;20105;-78
2021/10/23 12:38:12;;;;;;;3.28;1.67;;;23.20;29.80;;;;;;6219101;28;20133;-78
2021/10/23 12:41:13;;;;;;;4.22;1.70;;;22.60;30.50;;;;;;6222577;28;20052;-77
2021/10/23 12:44:18;;;;;;;4.95;2.10;;;22.00;31.40;;;;;;6217048;28;20092;-77
2021/10/23 12:47:20;;;;;;;3.65;1.85;;;21.50;32.40;;;;;;6231413;28;20148;-77
2021/10/23 12:50:25;;;;;;;3.15;1.60;;;21.00;33.00;;;;;;6218055;28;20030;-77
2021/10/23 12:53:26;;;;;;;3.95;1.88;;;20.70;34.20;;;;;;6219264;28;20550;-78
2021/10/23 12:56:27;;;;;;;3.75;1.80;;;20.30;34.10;;;;;;6204009;28;20043;-76
2021/10/23 12:59:27;;;;;;;3.45;1.45;;;20.00;34.70;;;;;;6220665;28;20359;-77
2021/10/23 13:02:28;;;;;;;4.43;1.65;;;19.70;35.30;;;;;;6215510;28;20411;-77
2021/10/23 13:05:31;;;;;;;6.00;1.63;;;19.50;35.90;;;;;;6216356;28;20041;-78
2021/10/23 13:08:33;;;;;;;8.93;1.70;;;19.30;36.30;;;;;;6219966;28;20030;-77
2021/10/23 13:11:37;;;;;;;3.28;1.50;;;19.20;36.70;;;;;;6220124;28;20049;-77
2021/10/23 13:14:39;;;;;;;3.50;1.20;;;19.10;37.00;;;;;;6219069;28;20062;-77
2021/10/23 13:17:40;;;;;;;3.65;1.55;;;19.00;37.30;;;;;;6201886;28;20045;-76
2021/10/23 13:20:41;;;;;;;3.75;1.60;;;18.90;37.50;;;;;;6224829;28;20148;-76
2021/10/23 13:23:42;;;;;;;2.35;1.30;;;18.80;37.70;;;;;;6236022;28;20355;-76
2021/10/23 13:26:43;;;;;;;2.30;1.23;;;18.80;37.90;;;;;;6227253;28;20379;-77
2021/10/23 13:29:44;;;;;;;10.93;1.35;;;18.80;38.10;;;;;;6225345;28;20081;-76
2021/10/23 13:32:45;;;;;;;2.85;1.35;;;18.80;38.20;;;;;;6212245;28;20045;-76
2021/10/23 13:35:46;;;;;;;8.02;1.33;;;18.70;38.90;;;;;;6220094;28;20050;-77
2021/10/23 13:38:47;;;;;;;2.15;1.15;;;18.70;38.40;;;;;;6217276;28;20073;-76
2021/10/23 13:41:48;;;;;;;2.08;1.23;;;18.70;38.50;;;;;;6220842;28;20050;-77
2021/10/23 13:44:50;;;;;;;4.05;1.30;;;18.70;38.60;;;;;;6218124;28;20030;-77
2021/10/23 13:47:51;;;;;;;4.47;1.20;;;18.60;38.70;;;;;;6201750;28;20041;-76
2021/10/23 13:50:52;;;;;;;6.40;2.00;;;18.60;38.70;;;;;;6217282;28;20104;-77
2021/10/23 13:53:54;;;;;;;3.03;1.20;;;18.50;38.70;;;;;;6218066;28;20109;-76
2021/10/23 13:56:54;;;;;;;1.92;1.20;;;18.70;38.90;;;;;;6232290;28;20033;-77
2021/10/23 13:59:55;;;;;;;5.80;1.38;;;18.70;39.00;;;;;;6217976;28;20100;-77
2021/10/23 14:02:57;;;;;;;5.25;1.27;;;18.60;38.90;;;;;;6215514;28;20099;-77
2021/10/23 14:05:58;;;;;;;1.60;1.05;;;18.70;39.00;;;;;;6217075;28;20034;-77
2021/10/23 14:08:59;;;;;;;3.65;1.13;;;18.70;39.10;;;;;;6233503;28;20042;-77
2021/10/23 14:12:00;;;;;;;2.97;1.25;;;18.70;39.10;;;;;;6217642;28;20434;-77
2021/10/23 14:15:02;;;;;;;1.67;1.20;;;18.70;39.20;;;;;;6222315;28;20037;-78
2021/10/23 14:18:03;;;;;;;1.98;1.17;;;18.70;39.30;;;;;;6216777;28;20117;-75
2021/10/23 14:21:04;;;;;;;3.65;1.45;;;18.80;39.40;;;;;;6208478;28;20344;-77
2021/10/23 14:24:05;;;;;;;4.18;1.35;;;18.80;39.40;;;;;;6217002;28;20044;-76
2021/10/23 14:27:26;;;;;;;3.28;1.10;;;18.80;39.40;;;;;;6218325;28;20116;-76
2021/10/23 14:30:27;;;;;;;3.00;1.40;;;18.80;39.50;;;;;;6215911;28;20049;-76
2021/10/23 14:33:28;;;;;;;3.10;1.35;;;18.70;39.50;;;;;;6218728;28;20208;-76
2021/10/23 14:36:29;;;;;;;9.95;1.63;;;18.70;39.60;;;;;;6216705;28;20422;-76
2021/10/23 14:39:30;;;;;;;2.25;1.42;;;18.70;39.70;;;;;;6197986;28;20041;-75
2021/10/23 14:42:32;;;;;;;9.45;1.33;;;18.70;39.80;;;;;;6217360;28;20038;-76
2021/10/23 14:45:33;;;;;;;8.43;2.20;;;18.70;39.90;;;;;;6233358;28;20034;-76
2021/10/23 14:48:35;;;;;;;3.47;1.60;;;18.70;40.00;;;;;;6218465;28;20056;-76
2021/10/23 14:51:36;;;;;;;6.68;1.50;;;18.60;40.10;;;;;;6222612;28;20161;-76
2021/10/23 14:54:37;;;;;;;8.77;2.10;;;18.60;40.20;;;;;;6222680;28;20056;-76
2021/10/23 14:57:38;;;;;;;4.20;1.70;;;18.50;40.30;;;;;;6223306;28;20041;-76
2021/10/23 15:00:39;;;;;;;2.65;1.70;;;18.50;40.40;;;;;;6207465;28;20038;-79
2021/10/23 15:03:40;;;;;;;3.15;1.52;;;18.50;40.50;;;;;;6224501;28;20117;-76
2021/10/23 15:06:41;;;;;;;6.00;1.85;;;18.50;40.60;;;;;;6223309;28;20042;-77
2021/10/23 15:09:42;;;;;;;2.05;1.10;;;18.50;40.70;;;;;;6239563;28;20038;-77
2021/10/23 15:12:43;;;;;;;3.75;1.30;;;18.40;40.70;;;;;;6231150;28;20360;-77
2021/10/23 15:15:45;;;;;;;3.92;1.65;;;18.40;40.90;;;;;;6224489;28;20213;-77
2021/10/23 15:18:46;;;;;;;6.00;1.30;;;18.40;41.00;;;;;;6222320;28;20037;-77
2021/10/23 15:21:47;;;;;;;3.50;1.55;;;18.30;41.10;;;;;;6238783;28;20339;-77
2021/10/23 15:24:49;;;;;;;4.82;1.73;;;18.30;41.20;;;;;;6209521;28;20061;-76
2021/10/23 15:27:50;;;;;;;2.85;1.55;;;18.30;41.30;;;;;;6222693;28;20034;-77
2021/10/23 15:30:50;;;;;;;4.32;1.63;;;18.30;41.30;;;;;;6222803;28;20049;-78
2021/10/23 15:33:51;;;;;;;3.00;1.55;;;18.20;41.40;;;;;;6222250;28;20349;-76
2021/10/23 15:36:52;;;;;;;3.67;1.70;;;18.20;41.60;;;;;;6212598;28;20052;-76
2021/10/23 15:39:54;;;;;;;6.00;2.33;;;18.10;41.70;;;;;;6221822;28;20050;-77
2021/10/23 15:42:56;;;;;;;3.70;1.92;;;18.00;41.80;;;;;;6220670;28;20029;-77
2021/10/23 15:45:57;;;;;;;4.00;1.58;;;18.00;41.90;;;;;;6224893;28;20044;-77
2021/10/23 15:48:59;;;;;;;4.85;1.85;;;17.90;42.00;;;;;;6223046;28;20034;-76
2021/10/23 15:52:00;;;;;;;9.85;1.98;;;17.90;42.20;;;;;;6225853;28;20065;-77